Aviation Digital Data Service (ADDS)

Output produced by METARs form (0730 UTC 19 February 2019)
found at http://www.aviationweather.gov/metar/data/
 
Forecast for: WBKL (LABUAN (AFB) , MY)
Text: TAF WBKL 190500Z 1906/2006 01008KT 9999 FEW012
Forecast period: 0600 UTC 19 February 2019 to 0600 UTC 20 February 2019
Forecast type: FROM: standard forecast or significant change
Winds: from the N (10 degrees) at 9 MPH (8 knots; 4.1 m/s)
Visibility: 6 or more miles 10+ km)
Ceiling: at least 12,000 feet AGL
Clouds: few clouds at 1200 feet AGL
Weather: no significant weather forecast for this period
Text: TEMPO 1910/1914 4000 RA FEW010 FEW014CB SCT040
Forecast period: 1000 to 1400 UTC 19 February 2019
Forecast type: TEMPORARY: The following changes expected for less than half the time period
Visibility: 2.49 miles (4.01 km)
Ceiling: at least 12,000 feet AGL
Clouds: few clouds at 1000 feet AGL
few clouds at 1400 feet AGL
scattered clouds at 4000 feet AGL
Weather: RA  (moderate rain)